Time;durP1;ratioP1;P1;durP2;ratioP2;P2;SDS_P1;SDS_P2;PMS_P1;PMS_P2;Temp;Humidity;BMP_temperature;BMP_pressure;BME280_temperature;BME280_humidity;BME280_pressure;Samples;Min_cycle;Max_cycle;Signal;HPM_P1;HPM_P2
2021/10/28 00:13:40;;;;;;;4.55;3.95;;;;;;;12.18;100.00;101522.22;4973474;28;20515;-80
2021/10/28 00:16:21;;;;;;;7.95;4.70;;;;;;;12.20;100.00;101520.44;4958988;28;20047;-80
2021/10/28 00:18:59;;;;;;;4.57;3.80;;;;;;;12.17;100.00;101520.47;4952032;28;20057;-80
2021/10/28 00:21:30;;;;;;;5.13;4.00;;;;;;;12.22;100.00;101513.34;4970876;28;20046;-80
2021/10/28 00:24:02;;;;;;;5.07;4.32;;;;;;;12.23;100.00;101511.56;4979126;28;20063;-80
2021/10/28 00:26:30;;;;;;;7.65;4.10;;;;;;;12.20;100.00;101520.44;4979818;28;20052;-79
2021/10/28 00:29:00;;;;;;;7.00;4.35;;;;;;;12.17;100.00;101516.94;4974440;28;20106;-80
2021/10/28 00:31:29;;;;;;;4.35;3.83;;;;;;;12.19;100.00;101523.09;4955373;28;20639;-79
2021/10/28 00:33:57;;;;;;;4.75;3.78;;;;;;;12.14;100.00;101520.53;4963238;28;20479;-79
2021/10/28 00:36:24;;;;;;;6.47;4.05;;;;;;;12.20;100.00;101517.81;4950306;28;20058;-80
2021/10/28 00:38:51;;;;;;;4.85;4.25;;;;;;;12.20;100.00;101517.81;4993509;28;20166;-80
2021/10/28 00:41:19;;;;;;;5.53;4.10;;;;;;;12.29;100.00;101525.63;4967896;28;20061;-80
2021/10/28 00:43:49;;;;;;;5.05;3.90;;;;;;;12.17;100.00;101520.47;4964978;28;20533;-80
2021/10/28 00:46:17;;;;;;;4.70;4.00;;;;;;;12.17;100.00;101523.13;4996931;23;20049;-82
2021/10/28 00:48:46;;;;;;;3.80;3.40;;;;;;;12.24;100.00;101527.44;4971936;28;20434;-81
2021/10/28 00:51:13;;;;;;;8.85;4.47;;;;;;;12.17;100.00;101528.41;4967380;28;20615;-81
2021/10/28 00:53:41;;;;;;;6.20;4.43;;;;;;;12.20;100.00;101520.44;4948851;28;20531;-81
2021/10/28 00:56:11;;;;;;;5.78;4.10;;;;;;;12.18;100.00;101532.81;4942012;28;20242;-79
2021/10/28 00:58:39;;;;;;;6.00;4.10;;;;;;;12.10;100.00;101537.34;4978656;28;20048;-81
2021/10/28 01:01:08;;;;;;;8.85;4.05;;;;;;;12.13;100.00;101533.78;4989748;28;20061;-81
2021/10/28 01:03:37;;;;;;;5.20;3.90;;;;;;;12.15;100.00;101532.00;4953387;28;20051;-81
2021/10/28 01:06:04;;;;;;;8.60;5.10;;;;;;;12.11;100.00;101536.47;4959583;28;20046;-81
2021/10/28 01:08:31;;;;;;;7.55;3.75;;;;;;;12.05;100.00;101540.06;4940440;28;20052;-82
2021/10/28 01:10:58;;;;;;;7.00;4.25;;;;;;;12.07;100.00;101540.03;4957850;28;20077;-84
2021/10/28 01:13:25;;;;;;;5.60;4.22;;;;;;;12.05;100.00;101537.41;4968426;28;20050;-82
2021/10/28 01:15:55;;;;;;;6.80;4.20;;;;;;;12.08;100.00;101544.44;4935708;28;20046;-82
2021/10/28 01:18:23;;;;;;;4.97;3.67;;;;;;;12.14;100.00;101540.84;4963898;28;20650;-82
2021/10/28 01:20:53;;;;;;;7.10;4.18;;;;;;;12.05;100.00;101534.75;4967976;28;20038;-82
2021/10/28 01:23:24;;;;;;;4.05;3.65;;;;;;;12.09;100.00;101538.25;4969426;28;20046;-83
2021/10/28 01:25:53;;;;;;;7.00;3.85;;;;;;;12.13;100.00;101534.66;4974246;28;20050;-82
2021/10/28 01:28:20;;;;;;;5.35;3.88;;;;;;;12.04;100.00;101548.03;4963668;28;20051;-82
2021/10/28 01:30:53;;;;;;;4.65;3.95;;;;;;;12.02;100.00;101526.88;4954389;28;20062;-84
2021/10/28 01:33:21;;;;;;;4.53;3.40;;;;;;;11.98;100.00;101538.38;4979169;28;20150;-84
2021/10/28 01:35:48;;;;;;;4.95;3.88;;;;;;;11.92;100.00;101529.63;4961556;28;20050;-82
2021/10/28 01:38:16;;;;;;;5.78;4.10;;;;;;;11.96;100.00;101537.53;4972920;28;20071;-85
2021/10/28 01:40:52;;;;;;;5.30;3.85;;;;;;;12.03;100.00;101533.91;4941338;28;20093;-82
2021/10/28 01:43:19;;;;;;;5.28;3.75;;;;;;;12.02;100.00;101531.25;4963770;28;20050;-82
2021/10/28 01:45:46;;;;;;;5.95;3.55;;;;;;;12.01;100.00;101529.50;4951398;28;20042;-81
2021/10/28 01:48:13;;;;;;;5.03;3.67;;;;;;;11.92;100.00;101526.97;4952164;28;20454;-81
2021/10/28 01:50:40;;;;;;;5.85;3.83;;;;;;;11.90;100.00;101526.13;4949247;28;20101;-82
2021/10/28 01:53:09;;;;;;;7.45;4.85;;;;;;;11.92;100.00;101522.56;4955942;28;20241;-81
2021/10/28 01:55:36;;;;;;;5.75;3.88;;;;;;;11.88;100.00;101518.22;4958434;28;20052;-83
2021/10/28 01:58:02;;;;;;;4.75;3.50;;;;;;;11.86;100.00;101524.44;4941733;28;20046;-82
2021/10/28 02:00:29;;;;;;;6.03;4.15;;;;;;;11.78;100.00;101517.41;4957850;28;20514;-81
2021/10/28 02:02:56;;;;;;;4.75;3.88;;;;;;;11.79;100.00;101521.81;4957922;28;20038;-81
2021/10/28 02:05:23;;;;;;;6.50;3.80;;;;;;;11.77;100.00;101514.75;4953437;28;20053;-81
2021/10/28 02:07:50;;;;;;;6.88;4.63;;;;;;;11.75;100.00;101519.19;4974903;28;20042;-81
2021/10/28 02:10:19;;;;;;;6.22;3.78;;;;;;;11.75;100.00;101519.19;4991812;28;20418;-82
2021/10/28 02:12:47;;;;;;;6.90;4.15;;;;;;;11.75;100.00;101517.44;4989100;28;20039;-81
2021/10/28 02:15:15;;;;;;;6.53;4.00;;;;;;;11.73;100.00;101503.34;4960794;28;20458;-81
2021/10/28 02:17:43;;;;;;;5.22;3.80;;;;;;;11.68;100.00;101505.16;4927516;28;20094;-83
2021/10/28 02:20:11;;;;;;;4.47;3.75;;;;;;;11.63;100.00;101517.59;4962816;28;20047;-81
2021/10/28 02:22:38;;;;;;;6.75;4.15;;;;;;;11.64;100.00;101510.50;4986618;28;20092;-83
2021/10/28 02:25:06;;;;;;;5.70;3.97;;;;;;;11.56;100.00;101505.31;4973760;28;20057;-81
2021/10/28 02:27:33;;;;;;;5.15;3.85;;;;;;;11.50;100.00;101505.38;4957304;28;20427;-81
2021/10/28 02:30:00;;;;;;;5.13;3.90;;;;;;;11.43;100.00;101501.91;4970610;28;20053;-81
2021/10/28 02:32:27;;;;;;;5.55;3.90;;;;;;;11.38;100.00;101497.56;4960069;28;20058;-81
2021/10/28 02:34:53;;;;;;;4.10;3.55;;;;;;;11.28;100.00;101504.72;4989410;28;20050;-81
2021/10/28 02:37:20;;;;;;;6.13;4.22;;;;;;;11.16;100.00;101505.69;4979001;28;20046;-81
2021/10/28 02:39:48;;;;;;;4.07;3.58;;;;;;;11.10;100.00;101505.78;4956394;28;20525;-82
2021/10/28 02:42:15;;;;;;;6.10;3.97;;;;;;;11.03;100.00;101514.66;4995912;28;20065;-83
2021/10/28 02:44:43;;;;;;;7.75;3.97;;;;;;;10.93;100.00;101513.88;4969779;28;20038;-81
2021/10/28 02:47:11;;;;;;;6.93;4.00;;;;;;;10.87;100.00;101524.47;4990080;28;20069;-81
2021/10/28 02:49:38;;;;;;;5.68;3.90;;;;;;;10.77;100.00;101521.94;4967877;28;20038;-81
2021/10/28 02:52:05;;;;;;;7.75;4.15;;;;;;;10.74;100.00;101517.50;4960726;28;20042;-80
2021/10/28 02:54:34;;;;;;;5.65;3.60;;;;;;;10.63;100.00;101520.25;4962727;28;20049;-81
2021/10/28 02:57:01;;;;;;;5.32;3.88;;;;;;;10.56;100.00;101520.28;4956842;28;20057;-81
2021/10/28 02:59:27;;;;;;;4.97;3.72;;;;;;;10.48;100.00;101522.97;4972409;28;20053;-82
2021/10/28 03:01:55;;;;;;;4.45;3.53;;;;;;;10.39;100.00;101520.41;4953982;28;20038;-81
2021/10/28 03:04:24;;;;;;;4.72;4.22;;;;;;;10.29;100.00;101519.59;4975890;28;20066;-81
2021/10/28 03:06:52;;;;;;;7.25;4.22;;;;;;;10.30;100.00;101517.81;4976561;28;20043;-81
2021/10/28 03:09:22;;;;;;;6.13;4.85;;;;;;;10.31;100.00;101517.81;4972361;28;20050;-81
2021/10/28 03:11:50;;;;;;;5.70;4.25;;;;;;;10.17;100.00;101511.66;4977569;28;20038;-81
2021/10/28 03:14:21;;;;;;;6.07;3.95;;;;;;;10.04;100.00;101518.78;4954911;28;20065;-81
2021/10/28 03:27:26;;;;;;;5.95;4.25;;;;;;;9.81;100.00;101518.00;4966654;28;20039;-81
2021/10/28 03:29:53;;;;;;;6.20;4.90;;;;;;;9.75;100.00;101520.66;4955179;28;20053;-81
2021/10/28 03:32:20;;;;;;;5.82;4.70;;;;;;;9.71;100.00;101518.94;4980476;28;20039;-81
2021/10/28 03:34:48;;;;;;;6.93;4.80;;;;;;;9.66;100.00;101524.19;4948688;28;20042;-81
2021/10/28 03:37:23;;;;;;;6.32;5.07;;;;;;;9.70;100.00;101522.44;4961253;28;20039;-81
2021/10/28 04:07:13;;;;;;;8.35;5.60;;;;;;;9.20;100.00;101521.66;4955643;28;20050;-81
2021/10/28 04:18:35;;;;;;;;;;;;;;;9.03;100.00;101524.31;4916062;29;20079;-80
2021/10/28 04:21:10;;;;;;;9.43;5.72;;;;;;;8.99;100.00;101519.91;4901867;29;19923;-80
2021/10/28 04:29:03;;;;;;;10.15;6.88;;;;;;;8.91;100.00;101542.78;4973602;28;20554;-80
2021/10/28 04:31:36;;;;;;;7.90;5.88;;;;;;;8.82;100.00;101533.97;4975423;28;20042;-80
2021/10/28 04:34:08;;;;;;;10.98;7.00;;;;;;;8.75;100.00;101530.47;4972416;28;20113;-80
2021/10/28 04:36:35;;;;;;;9.00;6.30;;;;;;;8.71;100.00;101533.97;4967363;28;20074;-83
2021/10/28 04:39:08;;;;;;;8.48;6.20;;;;;;;8.66;100.00;101531.34;4956960;28;20400;-80
2021/10/28 04:41:36;;;;;;;8.75;6.40;;;;;;;8.62;100.00;101536.59;4975610;28;20117;-80
2021/10/28 04:44:07;;;;;;;8.73;5.75;;;;;;;8.57;100.00;101526.03;4973906;28;20073;-80
2021/10/28 04:46:34;;;;;;;9.07;7.15;;;;;;;8.52;100.00;101529.56;4956579;28;20042;-80
2021/10/28 04:49:00;;;;;;;9.15;6.38;;;;;;;8.51;100.00;101528.69;4955574;28;20042;-80
2021/10/28 04:51:27;;;;;;;8.55;6.25;;;;;;;8.45;100.00;101529.53;4958952;28;20104;-80
2021/10/28 04:53:54;;;;;;;8.93;6.65;;;;;;;8.42;100.00;101532.16;4957827;28;20053;-80
2021/10/28 04:56:21;;;;;;;8.68;6.30;;;;;;;8.41;100.00;101533.06;4940417;28;20064;-82
2021/10/28 04:58:48;;;;;;;10.00;6.47;;;;;;;8.40;100.00;101530.38;4940763;28;20046;-80
2021/10/28 05:01:15;;;;;;;9.40;6.50;;;;;;;8.31;100.00;101536.47;4967404;28;20097;-80
2021/10/28 05:03:42;;;;;;;8.32;6.13;;;;;;;8.29;100.00;101527.69;4965456;28;20049;-80
2021/10/28 05:06:09;;;;;;;9.88;6.85;;;;;;;8.31;100.00;101530.34;4971805;28;20504;-81
2021/10/28 05:08:36;;;;;;;10.85;6.68;;;;;;;8.26;100.00;101526.81;4990009;28;20065;-80
2021/10/28 05:11:03;;;;;;;10.10;7.70;;;;;;;8.19;100.00;101523.28;4991217;28;20092;-80
2021/10/28 05:13:29;;;;;;;10.60;7.35;;;;;;;8.21;100.00;101523.28;4973454;28;20053;-80
2021/10/28 05:15:57;;;;;;;11.93;6.93;;;;;;;8.15;100.00;101522.38;4971667;28;20062;-80
2021/10/28 05:18:25;;;;;;;9.45;7.40;;;;;;;8.08;100.00;101522.38;4988594;28;20094;-80
2021/10/28 05:20:53;;;;;;;10.13;8.00;;;;;;;8.07;100.00;101517.97;4957529;28;20050;-79
2021/10/28 05:23:21;;;;;;;10.57;7.75;;;;;;;8.04;100.00;101524.09;4943082;28;20077;-80
2021/10/28 05:25:48;;;;;;;10.55;7.45;;;;;;;8.06;100.00;101526.75;4993764;28;20549;-81
2021/10/28 05:28:15;;;;;;;12.70;8.07;;;;;;;8.06;100.00;101521.47;5009415;28;20073;-79
2021/10/28 05:30:41;;;;;;;12.15;8.25;;;;;;;8.01;100.00;101523.22;4993408;28;20042;-80
2021/10/28 05:33:14;;;;;;;11.05;7.28;;;;;;;7.94;100.00;101524.06;4993941;28;20041;-82
2021/10/28 05:35:40;;;;;;;13.13;9.43;;;;;;;7.92;100.00;101524.06;4977040;28;20077;-79
2021/10/28 05:38:07;;;;;;;11.90;7.78;;;;;;;7.86;100.00;101522.28;4993560;28;20038;-80
2021/10/28 05:40:34;;;;;;;12.15;8.70;;;;;;;7.85;100.00;101531.06;4973952;28;20039;-80
2021/10/28 05:43:01;;;;;;;11.25;7.60;;;;;;;7.77;100.00;101531.88;4990366;28;20042;-80
2021/10/28 05:45:32;;;;;;;12.88;9.52;;;;;;;7.75;100.00;101523.13;4984654;28;20138;-81
2021/10/28 05:47:59;;;;;;;13.15;8.57;;;;;;;7.73;100.00;101530.97;5006122;28;20042;-80
2021/10/28 05:50:26;;;;;;;12.48;8.48;;;;;;;7.73;100.00;101523.09;4992376;28;20527;-80
2021/10/28 05:52:54;;;;;;;11.88;9.27;;;;;;;7.70;100.00;101528.34;4961650;28;20092;-80
2021/10/28 05:55:22;;;;;;;13.20;8.57;;;;;;;7.62;100.00;101527.44;4963664;28;20141;-80
2021/10/28 05:57:49;;;;;;;13.73;9.70;;;;;;;7.65;100.00;101523.91;4965936;28;20483;-81
2021/10/28 06:00:17;;;;;;;14.57;9.40;;;;;;;7.62;100.00;101528.31;4934518;28;20649;-81
2021/10/28 06:02:44;;;;;;;11.80;8.43;;;;;;;7.58;100.00;101523.91;4974637;28;20103;-81
2021/10/28 06:05:11;;;;;;;14.70;9.63;;;;;;;7.53;100.00;101533.50;4955110;28;20125;-81
2021/10/28 06:07:39;;;;;;;12.20;8.77;;;;;;;7.51;100.00;101535.25;4930116;28;20050;-80
2021/10/28 06:10:07;;;;;;;14.85;8.80;;;;;;;7.51;100.00;101531.75;4973153;28;20056;-80
2021/10/28 06:12:40;;;;;;;12.03;8.83;;;;;;;7.50;100.00;101535.25;4958275;28;20047;-80
2021/10/28 06:15:07;;;;;;;16.67;10.23;;;;;;;7.48;100.00;101527.38;4961133;28;20085;-81
2021/10/28 06:17:38;;;;;;;14.10;9.70;;;;;;;7.46;100.00;101531.72;4961698;28;20289;-80
2021/10/28 06:20:05;;;;;;;14.93;9.48;;;;;;;7.50;100.00;101527.38;4960780;28;20243;-81
2021/10/28 06:22:32;;;;;;;16.43;10.60;;;;;;;7.48;100.00;101526.44;4977740;28;20046;-80
2021/10/28 06:24:59;;;;;;;15.77;9.70;;;;;;;7.47;100.00;101528.22;4976250;28;20057;-81
2021/10/28 06:27:25;;;;;;;15.37;9.60;;;;;;;7.48;100.00;101527.38;4962019;28;20050;-82
2021/10/28 06:29:52;;;;;;;15.13;9.57;;;;;;;7.51;100.00;101530.00;4976555;28;20046;-81
2021/10/28 06:32:19;;;;;;;16.67;9.65;;;;;;;7.52;100.00;101538.78;4977332;28;20053;-81
2021/10/28 06:34:47;;;;;;;14.90;9.73;;;;;;;7.48;100.00;101536.97;5008383;28;20054;-81
2021/10/28 06:37:14;;;;;;;15.63;9.90;;;;;;;7.48;100.00;101534.34;4977448;28;20046;-81
2021/10/28 06:39:42;;;;;;;15.47;9.30;;;;;;;7.49;100.00;101538.75;4976286;28;20049;-81
2021/10/28 06:42:13;;;;;;;15.07;10.20;;;;;;;7.48;100.00;101534.34;4979015;28;20046;-81
2021/10/28 06:44:41;;;;;;;17.60;11.23;;;;;;;7.54;100.00;101534.38;4992119;28;20398;-81
2021/10/28 06:47:09;;;;;;;16.90;10.90;;;;;;;7.54;100.00;101539.66;4993229;28;20432;-82
2021/10/28 06:49:39;;;;;;;15.80;10.82;;;;;;;7.58;100.00;101528.28;4959687;28;20046;-81
2021/10/28 06:52:10;;;;;;;16.98;10.63;;;;;;;7.57;100.00;101540.56;4993925;28;20050;-82
2021/10/28 06:54:40;;;;;;;16.73;11.33;;;;;;;7.70;100.00;101525.72;4976466;28;20052;-81
2021/10/28 07:02:34;;;;;;;16.05;11.05;;;;;;;7.72;100.00;101536.25;4991964;28;20510;-81
2021/10/28 07:05:02;;;;;;;16.48;11.40;;;;;;;7.79;100.00;101535.41;4950138;28;20046;-81
2021/10/28 07:07:30;;;;;;;18.35;11.70;;;;;;;7.88;100.00;101531.06;4973092;28;20046;-82
2021/10/28 07:15:08;;;;;;;20.70;12.57;;;;;;;8.08;100.00;101528.53;5003907;28;20425;-84
2021/10/28 07:17:59;;;;;;;18.30;12.63;;;;;;;8.04;100.00;101533.75;5006199;28;20068;-86
2021/10/28 07:26:02;;;;;;;19.35;12.48;;;;;;;8.04;100.00;101526.75;5031783;28;20045;-84
2021/10/28 07:33:55;;;;;;;18.15;11.50;;;;;;;8.08;100.00;101531.16;4987075;28;20045;-82
2021/10/28 07:36:42;;;;;;;18.65;12.45;;;;;;;8.12;100.00;101529.41;4988591;28;20110;-82
2021/10/28 07:58:49;;;;;;;17.27;11.55;;;;;;;8.44;100.00;101514.63;5006275;28;20446;-81
2021/10/28 08:19:52;;;;;;;14.95;10.25;;;;;;;9.05;100.00;101512.88;4997416;28;20072;-82
2021/10/28 08:30:20;;;;;;;13.18;9.85;;;;;;;9.25;100.00;101492.69;4998898;28;20041;-81
2021/10/28 08:32:47;;;;;;;15.30;9.77;;;;;;;9.38;100.00;101490.88;4997548;28;20398;-81
2021/10/28 08:35:35;;;;;;;13.77;8.98;;;;;;;9.44;100.00;101488.22;4967267;28;20069;-82
2021/10/28 08:38:02;;;;;;;15.20;10.52;;;;;;;9.54;100.00;101487.31;4978739;28;20046;-81
2021/10/28 08:40:29;;;;;;;12.90;9.35;;;;;;;9.62;100.00;101488.16;4961842;28;20049;-83
2021/10/28 08:43:03;;;;;;;14.18;8.93;;;;;;;9.83;100.00;101492.47;4975365;28;20053;-81
2021/10/28 08:45:34;;;;;;;11.27;8.02;;;;;;;9.92;100.00;101483.63;5017039;28;20139;-82
2021/10/28 08:48:03;;;;;;;13.18;8.27;;;;;;;10.14;100.00;101485.28;5018234;28;20073;-83
2021/10/28 08:50:37;;;;;;;12.23;9.02;;;;;;;10.19;100.00;101483.53;5016653;28;20044;-82
2021/10/28 08:53:22;;;;;;;10.98;8.43;;;;;;;10.27;100.00;101479.09;4999099;28;20049;-82
2021/10/28 08:55:57;;;;;;;10.15;7.30;;;;;;;10.41;100.00;101479.88;4984798;28;20041;-82
2021/10/28 09:29:36;;;;;;;7.85;6.05;;;;;;;12.79;93.76;101463.00;4998246;28;20097;-83
2021/10/28 09:32:03;;;;;;;9.43;6.53;;;;;;;13.04;91.00;101468.78;5006423;28;20049;-82
2021/10/28 09:51:08;;;;;;;8.10;4.85;;;;;;;14.29;79.94;101450.31;5026262;28;20053;-83
2021/10/28 09:54:05;;;;;;;6.20;4.80;;;;;;;14.35;79.20;101451.94;5007556;28;20099;-82
2021/10/28 09:59:54;;;;;;;6.53;5.10;;;;;;;14.56;77.23;101448.81;5039124;28;20052;-82
2021/10/28 10:02:38;;;;;;;5.38;4.30;;;;;;;14.74;77.18;101444.81;5019875;28;20060;-83
2021/10/28 10:05:05;;;;;;;6.32;4.78;;;;;;;14.79;75.40;101445.56;5007361;28;20048;-82
2021/10/28 10:07:31;;;;;;;6.13;4.80;;;;;;;14.90;76.91;101438.19;5022577;28;20041;-82
2021/10/28 10:09:59;;;;;;;5.78;4.50;;;;;;;14.96;75.08;101437.13;4976384;28;20050;-81
2021/10/28 10:12:26;;;;;;;6.57;4.55;;;;;;;14.98;74.97;101437.13;4977076;28;20045;-81
2021/10/28 10:14:53;;;;;;;7.93;5.47;;;;;;;15.09;74.53;101443.88;4991504;28;20046;-82
2021/10/28 10:17:19;;;;;;;7.22;5.13;;;;;;;15.15;72.92;101438.41;4999288;28;20540;-82
2021/10/28 10:19:50;;;;;;;5.57;4.55;;;;;;;15.20;74.16;101439.16;5021142;28;20044;-81
2021/10/28 10:25:36;;;;;;;5.72;4.13;;;;;;;15.52;73.17;101431.19;5024526;28;20037;-82
2021/10/28 10:28:55;;;;;;;5.68;4.20;;;;;;;15.53;72.25;101431.13;5004485;28;20041;-82
2021/10/28 11:24:09;;;;;;;5.70;3.70;;;;;;;16.55;66.64;101387.13;5000420;28;20054;-82
2021/10/28 12:45:07;;;;;;;3.67;3.05;;;;;;;16.48;66.14;101298.47;4998275;28;20046;-81
2021/10/28 12:50:40;;;;;;;5.95;3.38;;;;;;;16.38;67.82;101298.81;5037116;28;20401;-82
2021/10/28 13:05:01;;;;;;;4.80;3.85;;;;;;;16.00;68.11;101282.31;5028833;28;20336;-82
2021/10/28 13:53:14;;;;;;;18.50;13.55;;;;;;;15.23;70.58;101259.00;4916093;29;20056;-85
2021/10/28 13:56:14;;;;;;;8.75;7.45;;;;;;;15.21;70.91;101265.19;4937013;29;20461;-85
2021/10/28 14:16:24;;;;;;;3.47;2.70;;;;;;;14.78;74.17;101244.31;4937734;29;20046;-83
2021/10/28 14:24:24;;;;;;;5.18;3.72;;;;;;;14.69;73.85;101244.56;4917674;29;20051;-86
2021/10/28 14:29:49;;;;;;;4.88;3.50;;;;;;;14.54;75.73;101240.53;4920489;29;20051;-83
2021/10/28 15:28:08;;;;;;;8.30;4.50;;;;;;;12.49;95.38;101178.13;4941218;28;20038;-82
2021/10/28 15:52:42;;;;;;;5.35;3.70;;;;;;;11.56;100.00;101161.28;4916435;29;20595;-84
2021/10/28 16:21:59;;;;;;;7.57;5.53;;;;;;;10.58;100.00;101170.63;4960703;28;20051;-84
2021/10/28 16:24:28;;;;;;;6.30;4.63;;;;;;;10.46;100.00;101168.13;4918004;29;20567;-84
2021/10/28 16:26:56;;;;;;;6.35;4.45;;;;;;;10.47;100.00;101163.72;4929905;29;20055;-84
2021/10/28 16:29:24;;;;;;;9.45;4.32;;;;;;;10.33;100.00;101161.22;4931913;29;20099;-82
2021/10/28 16:31:51;;;;;;;5.65;4.13;;;;;;;10.24;100.00;101170.13;4928169;29;20043;-82
2021/10/28 16:34:23;;;;;;;6.88;3.90;;;;;;;10.24;100.00;101171.91;4931255;28;20051;-83
2021/10/28 16:36:50;;;;;;;6.63;4.40;;;;;;;10.21;100.00;101156.06;4924253;29;20456;-83
2021/10/28 16:39:18;;;;;;;5.57;3.90;;;;;;;10.08;100.00;101161.47;4931384;29;20114;-82
2021/10/28 16:41:47;;;;;;;7.97;4.82;;;;;;;10.09;100.00;101159.72;4929286;28;20058;-82
2021/10/28 16:44:15;;;;;;;5.60;4.13;;;;;;;10.01;100.00;101159.81;4917934;29;20050;-82
2021/10/28 16:46:43;;;;;;;4.80;3.95;;;;;;;9.96;100.00;101156.31;4940740;29;20047;-83
2021/10/28 16:49:11;;;;;;;7.68;3.92;;;;;;;9.99;100.00;101152.78;4902496;28;20078;-82
2021/10/28 16:51:38;;;;;;;6.25;4.50;;;;;;;9.82;100.00;101151.16;4916168;29;20036;-82
2021/10/28 16:54:07;;;;;;;6.57;4.28;;;;;;;9.75;100.00;101151.25;4917452;29;20327;-82
2021/10/28 16:56:34;;;;;;;5.00;3.75;;;;;;;9.67;100.00;101147.78;4920803;29;20040;-82
2021/10/28 16:59:01;;;;;;;6.70;4.28;;;;;;;9.62;100.00;101149.63;4917675;29;20114;-82
2021/10/28 17:01:28;;;;;;;7.18;4.20;;;;;;;9.59;100.00;101151.41;4933306;29;20532;-83
2021/10/28 17:03:56;;;;;;;5.95;4.65;;;;;;;9.59;100.00;101145.25;4915994;29;20070;-82
2021/10/28 17:06:23;;;;;;;5.50;3.78;;;;;;;9.50;100.00;101140.03;4932230;29;20047;-82
2021/10/28 17:08:56;;;;;;;8.02;5.03;;;;;;;9.55;100.00;101147.03;4918811;29;20493;-82
2021/10/28 17:11:26;;;;;;;5.00;3.63;;;;;;;9.51;100.00;101141.81;4923324;29;20048;-82
2021/10/28 17:13:53;;;;;;;6.47;4.28;;;;;;;9.40;100.00;101143.63;4924886;29;20449;-82
2021/10/28 17:16:21;;;;;;;5.78;4.28;;;;;;;9.35;100.00;101141.03;4930706;29;20044;-82
2021/10/28 17:18:47;;;;;;;5.88;3.92;;;;;;;9.29;100.00;101141.09;4897223;29;20124;-82
2021/10/28 17:21:16;;;;;;;5.55;3.92;;;;;;;9.19;100.00;101139.41;4923207;29;20062;-82
2021/10/28 17:23:48;;;;;;;5.60;4.40;;;;;;;9.14;100.00;101131.53;4922131;28;20796;-86
2021/10/28 17:26:16;;;;;;;5.85;3.83;;;;;;;9.17;100.00;101130.66;4918550;29;20420;-83
2021/10/28 17:28:43;;;;;;;6.53;4.35;;;;;;;9.09;100.00;101128.06;4929992;29;20054;-82
2021/10/28 17:31:10;;;;;;;6.13;4.50;;;;;;;9.00;100.00;101131.63;4912515;28;20507;-82
2021/10/28 17:33:37;;;;;;;6.32;4.43;;;;;;;9.01;100.00;101130.75;4931999;29;20066;-82
2021/10/28 17:36:05;;;;;;;7.22;4.53;;;;;;;8.98;100.00;101125.47;4925195;29;20417;-82
2021/10/28 17:38:32;;;;;;;7.25;4.60;;;;;;;9.00;100.00;101121.09;4922362;28;20058;-81
2021/10/28 17:41:04;;;;;;;8.02;4.60;;;;;;;8.91;100.00;101126.41;4932476;29;20504;-82
2021/10/28 17:43:52;;;;;;;6.60;4.50;;;;;;;8.85;100.00;101118.53;4899700;29;20114;-82
2021/10/28 17:46:20;;;;;;;7.15;4.88;;;;;;;8.84;100.00;101121.19;4904320;29;20557;-82
2021/10/28 17:48:48;;;;;;;6.90;4.80;;;;;;;8.73;100.00;101113.34;4926486;29;20745;-82
2021/10/28 17:51:16;;;;;;;9.38;4.90;;;;;;;8.73;100.00;101119.47;4933493;28;20044;-82
2021/10/28 17:53:44;;;;;;;5.85;4.00;;;;;;;8.67;100.00;101114.25;4944373;28;20050;-82
2021/10/28 17:56:12;;;;;;;6.63;4.53;;;;;;;8.62;100.00;101118.66;4922025;29;20059;-81
2021/10/28 17:58:39;;;;;;;7.03;4.82;;;;;;;8.80;100.00;101122.09;4891856;29;20094;-82
2021/10/28 18:01:06;;;;;;;6.55;4.97;;;;;;;8.67;100.00;101122.16;4917537;28;20054;-82
2021/10/28 18:03:33;;;;;;;7.13;5.00;;;;;;;8.64;100.00;101118.66;4919627;29;20437;-81
2021/10/28 18:06:00;;;;;;;11.02;5.47;;;;;;;8.54;100.00;101119.59;4919016;29;20047;-81
2021/10/28 18:08:27;;;;;;;8.23;4.85;;;;;;;8.50;100.00;101121.38;4915844;29;20047;-81
2021/10/28 18:10:54;;;;;;;7.00;4.88;;;;;;;8.41;100.00;101116.16;4922099;29;20048;-81
2021/10/28 18:13:21;;;;;;;6.95;5.35;;;;;;;8.38;100.00;101114.38;4917539;29;20035;-82
2021/10/28 18:15:48;;;;;;;8.85;5.90;;;;;;;8.38;100.00;101111.75;4905905;29;20063;-81
2021/10/28 18:18:14;;;;;;;10.10;5.45;;;;;;;8.30;100.00;101108.25;4921246;29;20046;-82
2021/10/28 18:20:56;;;;;;;6.05;4.45;;;;;;;8.28;100.00;101098.59;4915909;29;20086;-81
2021/10/28 18:23:32;;;;;;;7.55;4.93;;;;;;;8.28;100.00;101099.47;4899311;29;20078;-82
2021/10/28 18:25:59;;;;;;;7.28;5.10;;;;;;;8.29;100.00;101106.50;4933353;29;20421;-82
2021/10/28 18:28:26;;;;;;;5.80;4.63;;;;;;;8.15;100.00;101098.63;4931134;28;20446;-81
2021/10/28 18:30:53;;;;;;;7.70;5.20;;;;;;;8.13;100.00;101105.66;4927774;29;20044;-82
2021/10/28 18:33:20;;;;;;;7.90;5.53;;;;;;;8.06;100.00;101093.41;4916412;28;20592;-81
2021/10/28 18:35:48;;;;;;;9.57;5.22;;;;;;;8.14;100.00;101096.00;4924240;29;20102;-82
2021/10/28 18:38:15;;;;;;;6.95;5.60;;;;;;;8.20;100.00;101093.38;4911025;29;20513;-81
2021/10/28 18:40:42;;;;;;;6.88;5.35;;;;;;;8.07;100.00;101097.81;4935346;29;20066;-81
2021/10/28 18:43:09;;;;;;;8.52;5.88;;;;;;;8.01;100.00;101095.19;4929868;28;20043;-82
2021/10/28 18:45:36;;;;;;;7.22;5.35;;;;;;;7.92;100.00;101094.34;4933487;29;20047;-82
2021/10/28 18:48:03;;;;;;;9.68;6.18;;;;;;;8.01;100.00;101076.78;4928250;29;20047;-81
2021/10/28 18:50:30;;;;;;;8.40;6.00;;;;;;;7.99;100.00;101083.81;4894770;28;20046;-81
2021/10/28 18:52:59;;;;;;;10.25;6.03;;;;;;;7.94;100.00;101080.31;4939685;28;20054;-81
2021/10/28 18:55:26;;;;;;;6.95;5.70;;;;;;;7.93;100.00;101078.56;4898213;29;20070;-82
2021/10/28 18:57:52;;;;;;;9.45;6.28;;;;;;;7.87;100.00;101076.81;4935182;29;20047;-82
2021/10/28 19:00:20;;;;;;;9.20;6.70;;;;;;;7.89;100.00;101067.16;4929460;29;20066;-82
2021/10/28 19:02:46;;;;;;;12.00;7.00;;;;;;;7.87;100.00;101071.56;4933556;29;20063;-82
2021/10/28 19:05:13;;;;;;;10.97;6.97;;;;;;;7.99;100.00;101064.50;4916295;29;20051;-82
2021/10/28 19:07:44;;;;;;;10.38;7.80;;;;;;;7.89;100.00;101066.28;4923687;29;20390;-82
2021/10/28 19:10:10;;;;;;;11.40;7.72;;;;;;;7.92;100.00;101062.78;4923616;28;20050;-82
2021/10/28 19:12:37;;;;;;;13.65;8.50;;;;;;;7.95;100.00;101065.41;4916886;29;20699;-81
2021/10/28 19:15:04;;;;;;;13.33;8.93;;;;;;;8.05;100.00;101065.34;4926974;29;20511;-82
2021/10/28 19:17:32;;;;;;;16.02;9.27;;;;;;;8.05;100.00;101060.09;4931581;28;20044;-81
2021/10/28 19:19:59;;;;;;;12.63;9.18;;;;;;;8.16;100.00;101066.19;4940772;29;20058;-81
2021/10/28 19:22:30;;;;;;;14.88;9.70;;;;;;;8.29;100.00;101059.13;4939562;29;20048;-81
2021/10/28 19:24:58;;;;;;;11.82;8.93;;;;;;;8.29;100.00;101058.25;4927473;29;20043;-81
2021/10/28 19:27:29;;;;;;;15.93;9.30;;;;;;;8.39;100.00;101060.84;4934446;29;20094;-81
2021/10/28 19:30:02;;;;;;;13.63;9.07;;;;;;;8.38;100.00;101053.84;4910893;29;20404;-81
2021/10/28 19:32:29;;;;;;;18.92;9.73;;;;;;;8.49;100.00;101056.41;4934162;28;20497;-82
2021/10/28 19:34:58;;;;;;;13.13;8.45;;;;;;;8.41;100.00;101052.97;4925175;29;20058;-82
2021/10/28 19:37:38;;;;;;;12.75;9.13;;;;;;;8.38;100.00;101050.31;4934233;29;20043;-82
2021/10/28 19:40:16;;;;;;;13.70;9.05;;;;;;;8.43;100.00;101052.06;4932005;29;20051;-82
2021/10/28 19:46:09;;;;;;;14.60;9.98;;;;;;;8.45;100.00;101047.66;4918297;28;20058;-81
2021/10/28 19:48:20;;;;;;;14.10;9.70;;;;;;;8.61;100.00;101035.28;4921787;28;20051;-81
2021/10/28 19:50:48;;;;;;;13.23;8.32;;;;;;;8.59;100.00;101044.94;4923386;29;20299;-82
2021/10/28 19:53:17;;;;;;;13.73;9.30;;;;;;;8.50;100.00;101041.50;4919882;29;20370;-82
2021/10/28 19:55:43;;;;;;;13.00;8.85;;;;;;;8.52;100.00;101042.34;4920217;29;20524;-82
2021/10/28 19:58:19;;;;;;;12.88;8.95;;;;;;;8.49;100.00;101048.50;4926030;29;20039;-81
2021/10/28 20:00:50;;;;;;;12.65;8.93;;;;;;;8.64;100.00;101047.53;4932067;29;20772;-81